CYKO

Akulivik Airport

ICAO Code CYKO
IATA Code AKV
Name Akulivik Airport
Location Akulivik, Quebec, CA
Elevation 76 Feet / 23.2 Meters
Latitude 60.81861111
Longitude -78.14861111
METAR CYKO 151500Z 31009KT 15SM FEW016 BKN120 BKN230 11/07 A3005 RMK SF1AC6CC1 CC TR LAST STFD OBS/NEXT OBS 231200UTC SLP180
Extra information Display NOTAMS
Display Charts
Runway Length Width Surface Elevation
08 3521 ft 100 ft GVL 42 ft
26 3521 ft 100 ft GVL 76 ft